sensor_id;sensor_type;location;lat;lon;timestamp;pressure;altitude;pressure_sealevel;temperature;humidity
21902;BME280;11115;46.038;14.612;2022-08-14T00:02:02;98145.66;;;14.70;100.00
21902;BME280;11115;46.038;14.612;2022-08-14T00:04:34;98146.97;;;14.85;100.00
21902;BME280;11115;46.038;14.612;2022-08-14T00:07:12;98150.41;;;14.70;100.00
21902;BME280;11115;46.038;14.612;2022-08-14T00:09:53;98147.47;;;14.54;100.00
21902;BME280;11115;46.038;14.612;2022-08-14T00:12:54;98130.91;;;14.37;100.00
21902;BME280;11115;46.038;14.612;2022-08-14T00:15:38;98140.63;;;14.31;100.00
21902;BME280;11115;46.038;14.612;2022-08-14T00:18:19;98144.34;;;14.35;100.00
21902;BME280;11115;46.038;14.612;2022-08-14T00:21:12;98144.03;;;14.15;100.00
21902;BME280;11115;46.038;14.612;2022-08-14T00:23:55;98146.88;;;14.27;100.00
21902;BME280;11115;46.038;14.612;2022-08-14T00:26:50;98138.44;;;14.36;100.00
21902;BME280;11115;46.038;14.612;2022-08-14T00:29:21;98140.69;;;14.22;100.00
21902;BME280;11115;46.038;14.612;2022-08-14T00:31:53;98142.59;;;14.30;100.00
21902;BME280;11115;46.038;14.612;2022-08-14T00:34:50;98143.19;;;14.36;100.00
21902;BME280;11115;46.038;14.612;2022-08-14T00:37:24;98135.19;;;14.34;100.00
21902;BME280;11115;46.038;14.612;2022-08-14T00:40:00;98144.28;;;14.43;100.00
21902;BME280;11115;46.038;14.612;2022-08-14T00:42:52;98129.63;;;14.34;100.00
21902;BME280;11115;46.038;14.612;2022-08-14T00:45:22;98137.31;;;14.16;100.00
21902;BME280;11115;46.038;14.612;2022-08-14T00:47:58;98132.97;;;14.07;100.00
21902;BME280;11115;46.038;14.612;2022-08-14T00:50:41;98134.00;;;14.02;100.00
21902;BME280;11115;46.038;14.612;2022-08-14T00:53:14;98119.75;;;13.83;100.00
21902;BME280;11115;46.038;14.612;2022-08-14T00:55:53;98132.72;;;14.00;100.00
21902;BME280;11115;46.038;14.612;2022-08-14T00:58:35;98133.59;;;14.12;100.00
21902;BME280;11115;46.038;14.612;2022-08-14T01:01:15;98130.13;;;14.15;100.00
21902;BME280;11115;46.038;14.612;2022-08-14T01:03:48;98121.44;;;14.17;100.00
21902;BME280;11115;46.038;14.612;2022-08-14T01:06:22;98119.25;;;14.22;100.00
21902;BME280;11115;46.038;14.612;2022-08-14T01:09:02;98102.59;;;14.02;100.00
21902;BME280;11115;46.038;14.612;2022-08-14T01:11:40;98119.84;;;13.95;100.00
21902;BME280;11115;46.038;14.612;2022-08-14T01:14:24;98121.81;;;13.94;100.00
21902;BME280;11115;46.038;14.612;2022-08-14T01:16:58;98122.28;;;13.96;100.00
21902;BME280;11115;46.038;14.612;2022-08-14T01:19:29;98114.16;;;13.91;100.00
21902;BME280;11115;46.038;14.612;2022-08-14T01:22:21;98123.16;;;14.09;100.00
21902;BME280;11115;46.038;14.612;2022-08-14T01:24:58;98122.81;;;14.11;100.00
21902;BME280;11115;46.038;14.612;2022-08-14T01:27:37;98119.03;;;13.94;100.00
21902;BME280;11115;46.038;14.612;2022-08-14T01:30:25;98119.28;;;13.60;100.00
21902;BME280;11115;46.038;14.612;2022-08-14T01:32:55;98116.03;;;13.58;100.00
21902;BME280;11115;46.038;14.612;2022-08-14T01:35:37;98121.34;;;13.72;100.00
21902;BME280;11115;46.038;14.612;2022-08-14T01:38:36;98121.97;;;13.68;100.00
21902;BME280;11115;46.038;14.612;2022-08-14T01:41:16;98117.06;;;13.74;100.00
21902;BME280;11115;46.038;14.612;2022-08-14T01:44:07;98092.28;;;13.81;100.00
21902;BME280;11115;46.038;14.612;2022-08-14T01:47:05;98108.91;;;14.11;100.00
21902;BME280;11115;46.038;14.612;2022-08-14T01:49:51;98093.53;;;13.92;100.00
21902;BME280;11115;46.038;14.612;2022-08-14T01:52:33;98095.84;;;13.70;100.00
21902;BME280;11115;46.038;14.612;2022-08-14T01:55:29;98081.06;;;13.57;100.00
21902;BME280;11115;46.038;14.612;2022-08-14T01:57:58;98099.09;;;13.72;100.00
21902;BME280;11115;46.038;14.612;2022-08-14T02:00:57;98085.94;;;13.60;100.00
21902;BME280;11115;46.038;14.612;2022-08-14T02:03:29;98099.16;;;13.63;100.00
21902;BME280;11115;46.038;14.612;2022-08-14T02:06:09;98099.22;;;13.75;100.00
21902;BME280;11115;46.038;14.612;2022-08-14T02:09:04;98085.19;;;13.72;100.00
21902;BME280;11115;46.038;14.612;2022-08-14T02:11:52;98090.19;;;13.78;100.00
21902;BME280;11115;46.038;14.612;2022-08-14T02:14:28;98097.94;;;13.73;100.00
21902;BME280;11115;46.038;14.612;2022-08-14T02:17:07;98091.09;;;13.70;100.00
21902;BME280;11115;46.038;14.612;2022-08-14T02:19:43;98094.19;;;13.68;100.00
21902;BME280;11115;46.038;14.612;2022-08-14T02:22:17;98087.16;;;13.71;100.00
21902;BME280;11115;46.038;14.612;2022-08-14T02:25:00;98077.13;;;13.58;100.00
21902;BME280;11115;46.038;14.612;2022-08-14T02:27:37;98086.38;;;13.41;100.00
21902;BME280;11115;46.038;14.612;2022-08-14T02:30:31;98070.19;;;13.14;100.00
21902;BME280;11115;46.038;14.612;2022-08-14T02:33:06;98073.28;;;13.21;100.00
21902;BME280;11115;46.038;14.612;2022-08-14T02:35:49;98076.44;;;13.40;100.00
21902;BME280;11115;46.038;14.612;2022-08-14T02:38:48;98083.28;;;13.43;100.00
21902;BME280;11115;46.038;14.612;2022-08-14T02:41:22;98084.22;;;13.47;100.00
21902;BME280;11115;46.038;14.612;2022-08-14T02:44:09;98080.63;;;13.46;100.00
21902;BME280;11115;46.038;14.612;2022-08-14T02:46:56;98076.56;;;13.44;100.00
21902;BME280;11115;46.038;14.612;2022-08-14T02:49:42;98077.50;;;13.48;100.00
21902;BME280;11115;46.038;14.612;2022-08-14T02:52:21;98043.97;;;13.53;100.00
21902;BME280;11115;46.038;14.612;2022-08-14T02:55:12;98073.09;;;13.67;100.00
21902;BME280;11115;46.038;14.612;2022-08-14T02:57:48;98071.22;;;13.59;100.00
21902;BME280;11115;46.038;14.612;2022-08-14T03:00:32;98075.84;;;13.55;100.00
21902;BME280;11115;46.038;14.612;2022-08-14T03:03:06;98063.00;;;13.42;100.00
21902;BME280;11115;46.038;14.612;2022-08-14T03:05:40;98078.63;;;13.55;100.00
21902;BME280;11115;46.038;14.612;2022-08-14T03:08:17;98077.66;;;13.72;100.00
21902;BME280;11115;46.038;14.612;2022-08-14T03:11:03;98070.28;;;13.76;100.00
21902;BME280;11115;46.038;14.612;2022-08-14T03:13:44;98071.91;;;13.56;100.00
21902;BME280;11115;46.038;14.612;2022-08-14T03:16:24;98061.38;;;13.62;100.00
21902;BME280;11115;46.038;14.612;2022-08-14T03:19:06;98059.50;;;13.75;100.00
21902;BME280;11115;46.038;14.612;2022-08-14T03:21:40;98075.69;;;13.93;100.00
21902;BME280;11115;46.038;14.612;2022-08-14T03:24:20;98076.09;;;13.83;100.00
21902;BME280;11115;46.038;14.612;2022-08-14T03:26:50;98078.47;;;13.93;100.00
21902;BME280;11115;46.038;14.612;2022-08-14T03:29:25;98013.66;;;13.60;100.00
21902;BME280;11115;46.038;14.612;2022-08-14T03:32:09;98077.69;;;14.05;100.00
21902;BME280;11115;46.038;14.612;2022-08-14T03:34:59;98073.28;;;14.04;100.00
21902;BME280;11115;46.038;14.612;2022-08-14T03:37:36;98075.22;;;13.91;100.00
21902;BME280;11115;46.038;14.612;2022-08-14T03:40:38;98075.22;;;13.91;100.00
21902;BME280;11115;46.038;14.612;2022-08-14T03:43:15;98076.03;;;13.92;100.00
21902;BME280;11115;46.038;14.612;2022-08-14T03:45:46;98073.72;;;13.94;100.00
21902;BME280;11115;46.038;14.612;2022-08-14T03:48:21;98080.81;;;14.04;100.00
21902;BME280;11115;46.038;14.612;2022-08-14T03:51:03;98052.66;;;13.72;100.00
21902;BME280;11115;46.038;14.612;2022-08-14T03:53:42;98066.41;;;13.89;100.00
21902;BME280;11115;46.038;14.612;2022-08-14T03:56:14;98068.16;;;13.94;100.00
21902;BME280;11115;46.038;14.612;2022-08-14T03:59:00;98068.53;;;14.05;100.00
21902;BME280;11115;46.038;14.612;2022-08-14T04:01:45;98067.38;;;14.06;100.00
21902;BME280;11115;46.038;14.612;2022-08-14T04:04:30;98082.31;;;14.01;100.00
21902;BME280;11115;46.038;14.612;2022-08-14T04:07:02;98077.09;;;14.00;100.00
21902;BME280;11115;46.038;14.612;2022-08-14T04:09:41;98076.63;;;13.97;100.00
21902;BME280;11115;46.038;14.612;2022-08-14T04:12:12;98053.31;;;13.90;100.00
21902;BME280;11115;46.038;14.612;2022-08-14T04:14:53;98081.28;;;14.06;100.00
21902;BME280;11115;46.038;14.612;2022-08-14T04:17:37;98069.84;;;13.86;100.00
21902;BME280;11115;46.038;14.612;2022-08-14T04:20:23;98073.66;;;13.82;100.00
21902;BME280;11115;46.038;14.612;2022-08-14T04:22:57;98075.56;;;13.90;100.00
21902;BME280;11115;46.038;14.612;2022-08-14T04:25:51;98053.66;;;13.88;100.00
21902;BME280;11115;46.038;14.612;2022-08-14T04:28:25;98067.59;;;14.01;100.00
21902;BME280;11115;46.038;14.612;2022-08-14T04:31:19;98062.97;;;14.05;100.00
21902;BME280;11115;46.038;14.612;2022-08-14T04:34:18;98062.50;;;14.03;100.00
21902;BME280;11115;46.038;14.612;2022-08-14T04:36:57;98061.66;;;13.90;100.00
21902;BME280;11115;46.038;14.612;2022-08-14T04:39:54;98036.88;;;13.97;100.00
21902;BME280;11115;46.038;14.612;2022-08-14T04:42:43;98059.84;;;14.06;100.00
21902;BME280;11115;46.038;14.612;2022-08-14T04:45:32;98060.81;;;14.10;100.00
21902;BME280;11115;46.038;14.612;2022-08-14T04:48:19;98058.38;;;14.09;100.00
21902;BME280;11115;46.038;14.612;2022-08-14T04:51:12;98043.97;;;14.07;100.00
21902;BME280;11115;46.038;14.612;2022-08-14T04:53:48;98060.47;;;14.24;100.00
21902;BME280;11115;46.038;14.612;2022-08-14T04:56:34;98058.97;;;14.14;100.00
21902;BME280;11115;46.038;14.612;2022-08-14T04:59:11;98053.47;;;14.06;100.00
21902;BME280;11115;46.038;14.612;2022-08-14T05:01:45;98054.59;;;13.92;100.00
21902;BME280;11115;46.038;14.612;2022-08-14T05:04:27;98041.03;;;13.91;100.00
21902;BME280;11115;46.038;14.612;2022-08-14T05:06:58;98059.59;;;13.99;100.00
21902;BME280;11115;46.038;14.612;2022-08-14T05:09:34;98039.47;;;13.81;100.00
21902;BME280;11115;46.038;14.612;2022-08-14T05:12:16;98059.56;;;14.20;100.00
21902;BME280;11115;46.038;14.612;2022-08-14T05:15:09;98050.53;;;13.90;100.00
21902;BME280;11115;46.038;14.612;2022-08-14T05:17:43;98027.84;;;14.00;100.00
21902;BME280;11115;46.038;14.612;2022-08-14T05:20:47;98059.88;;;13.85;100.00
21902;BME280;11115;46.038;14.612;2022-08-14T05:23:56;98055.94;;;13.86;100.00
21902;BME280;11115;46.038;14.612;2022-08-14T05:26:47;98056.00;;;13.98;100.00
21902;BME280;11115;46.038;14.612;2022-08-14T05:29:19;98053.81;;;14.04;100.00
21902;BME280;11115;46.038;14.612;2022-08-14T05:31:54;98055.25;;;14.10;100.00
21902;BME280;11115;46.038;14.612;2022-08-14T05:34:30;98058.41;;;14.21;100.00
21902;BME280;11115;46.038;14.612;2022-08-14T05:37:02;98052.78;;;14.42;100.00
21902;BME280;11115;46.038;14.612;2022-08-14T05:39:32;98036.88;;;14.42;100.00
21902;BME280;11115;46.038;14.612;2022-08-14T05:42:06;98045.72;;;14.44;100.00
21902;BME280;11115;46.038;14.612;2022-08-14T05:45:07;98055.69;;;14.45;100.00
21902;BME280;11115;46.038;14.612;2022-08-14T05:47:45;98052.78;;;14.42;100.00
21902;BME280;11115;46.038;14.612;2022-08-14T05:50:17;98056.53;;;14.58;100.00
21902;BME280;11115;46.038;14.612;2022-08-14T05:52:49;98048.91;;;14.67;100.00
21902;BME280;11115;46.038;14.612;2022-08-14T05:55:21;98044.25;;;14.59;100.00
21902;BME280;11115;46.038;14.612;2022-08-14T05:58:05;98051.59;;;14.76;100.00
21902;BME280;11115;46.038;14.612;2022-08-14T06:00:38;98053.78;;;14.70;100.00
21902;BME280;11115;46.038;14.612;2022-08-14T06:03:11;98048.22;;;14.82;100.00
21902;BME280;11115;46.038;14.612;2022-08-14T06:05:48;98052.41;;;14.88;100.00
21902;BME280;11115;46.038;14.612;2022-08-14T06:08:32;98047.75;;;14.80;100.00
21902;BME280;11115;46.038;14.612;2022-08-14T06:11:09;98053.56;;;14.87;100.00
21902;BME280;11115;46.038;14.612;2022-08-14T06:13:51;98048.44;;;15.02;100.00
21902;BME280;11115;46.038;14.612;2022-08-14T06:16:29;98049.25;;;15.02;100.00
21902;BME280;11115;46.038;14.612;2022-08-14T06:19:03;98051.25;;;15.14;100.00
21902;BME280;11115;46.038;14.612;2022-08-14T06:21:46;98050.41;;;15.01;100.00
21902;BME280;11115;46.038;14.612;2022-08-14T06:24:26;98052.75;;;15.24;100.00
21902;BME280;11115;46.038;14.612;2022-08-14T06:27:03;98045.31;;;15.03;100.00
21902;BME280;11115;46.038;14.612;2022-08-14T06:29:46;98045.09;;;14.96;100.00
21902;BME280;11115;46.038;14.612;2022-08-14T06:32:17;98048.09;;;15.28;100.00
21902;BME280;11115;46.038;14.612;2022-08-14T06:35:06;98037.25;;;15.38;100.00
21902;BME280;11115;46.038;14.612;2022-08-14T06:37:51;98033.28;;;15.52;100.00
21902;BME280;11115;46.038;14.612;2022-08-14T06:40:29;98026.16;;;15.78;100.00
21902;BME280;11115;46.038;14.612;2022-08-14T06:43:11;98029.53;;;16.00;100.00
21902;BME280;11115;46.038;14.612;2022-08-14T06:45:54;98019.53;;;16.27;100.00
21902;BME280;11115;46.038;14.612;2022-08-14T06:48:30;98015.03;;;16.22;100.00
21902;BME280;11115;46.038;14.612;2022-08-14T06:51:10;98015.50;;;16.40;100.00
21902;BME280;11115;46.038;14.612;2022-08-14T06:54:06;98009.63;;;16.29;100.00
21902;BME280;11115;46.038;14.612;2022-08-14T06:56:37;98019.69;;;16.02;100.00
21902;BME280;11115;46.038;14.612;2022-08-14T06:59:13;98025.94;;;15.99;100.00
21902;BME280;11115;46.038;14.612;2022-08-14T07:01:45;98021.31;;;16.19;100.00
21902;BME280;11115;46.038;14.612;2022-08-14T07:04:40;98020.84;;;16.17;100.00
21902;BME280;11115;46.038;14.612;2022-08-14T07:07:38;98024.47;;;16.18;100.00
21902;BME280;11115;46.038;14.612;2022-08-14T07:10:11;97991.19;;;15.97;100.00
21902;BME280;11115;46.038;14.612;2022-08-14T07:12:46;97992.50;;;16.15;100.00
21902;BME280;11115;46.038;14.612;2022-08-14T07:15:32;98026.31;;;16.57;100.00
21902;BME280;11115;46.038;14.612;2022-08-14T07:18:09;98000.03;;;16.43;100.00
21902;BME280;11115;46.038;14.612;2022-08-14T07:20:43;98014.16;;;16.65;100.00
21902;BME280;11115;46.038;14.612;2022-08-14T07:23:15;98015.69;;;16.47;100.00
21902;BME280;11115;46.038;14.612;2022-08-14T07:25:54;98005.25;;;16.91;100.00
21902;BME280;11115;46.038;14.612;2022-08-14T07:28:32;98018.41;;;17.07;100.00
21902;BME280;11115;46.038;14.612;2022-08-14T07:31:12;98014.59;;;17.15;100.00
21902;BME280;11115;46.038;14.612;2022-08-14T07:33:52;98001.59;;;17.57;100.00
21902;BME280;11115;46.038;14.612;2022-08-14T07:36:24;97986.44;;;17.58;100.00
21902;BME280;11115;46.038;14.612;2022-08-14T07:39:02;98000.91;;;17.80;100.00
21902;BME280;11115;46.038;14.612;2022-08-14T07:41:41;97995.06;;;17.88;100.00
21902;BME280;11115;46.038;14.612;2022-08-14T07:44:30;97994.59;;;18.06;100.00
21902;BME280;11115;46.038;14.612;2022-08-14T07:47:14;98000.66;;;18.08;100.00
21902;BME280;11115;46.038;14.612;2022-08-14T07:50:11;97998.78;;;18.35;100.00
21902;BME280;11115;46.038;14.612;2022-08-14T07:52:47;98000.91;;;18.64;100.00
21902;BME280;11115;46.038;14.612;2022-08-14T07:55:22;98003.34;;;18.66;100.00
21902;BME280;11115;46.038;14.612;2022-08-14T07:57:57;98003.25;;;18.62;100.00
21902;BME280;11115;46.038;14.612;2022-08-14T08:00:54;97988.28;;;18.74;100.00
21902;BME280;11115;46.038;14.612;2022-08-14T08:03:27;98005.41;;;18.92;100.00
21902;BME280;11115;46.038;14.612;2022-08-14T08:06:02;98001.69;;;19.10;100.00
21902;BME280;11115;46.038;14.612;2022-08-14T08:08:46;98000.06;;;19.09;100.00
21902;BME280;11115;46.038;14.612;2022-08-14T08:11:34;97996.22;;;19.21;100.00
21902;BME280;11115;46.038;14.612;2022-08-14T08:14:08;97999.97;;;19.55;100.00
21902;BME280;11115;46.038;14.612;2022-08-14T08:16:49;98002.72;;;19.82;100.00
21902;BME280;11115;46.038;14.612;2022-08-14T08:19:29;97994.16;;;19.71;100.00
21902;BME280;11115;46.038;14.612;2022-08-14T08:22:07;98003.78;;;20.04;100.00
21902;BME280;11115;46.038;14.612;2022-08-14T08:24:38;97992.28;;;20.16;100.00
21902;BME280;11115;46.038;14.612;2022-08-14T08:27:21;97992.75;;;20.21;100.00
21902;BME280;11115;46.038;14.612;2022-08-14T08:30:05;97989.03;;;20.10;100.00
21902;BME280;11115;46.038;14.612;2022-08-14T08:32:46;97981.41;;;20.44;100.00
21902;BME280;11115;46.038;14.612;2022-08-14T08:35:19;97994.03;;;20.65;100.00
21902;BME280;11115;46.038;14.612;2022-08-14T08:38:21;97988.19;;;20.84;100.00
21902;BME280;11115;46.038;14.612;2022-08-14T08:41:10;97987.47;;;20.98;100.00
21902;BME280;11115;46.038;14.612;2022-08-14T08:43:43;97975.28;;;20.79;100.00
21902;BME280;11115;46.038;14.612;2022-08-14T08:46:19;97970.94;;;20.85;100.00
21902;BME280;11115;46.038;14.612;2022-08-14T08:49:02;97970.72;;;21.12;100.00
21902;BME280;11115;46.038;14.612;2022-08-14T08:51:49;97964.53;;;21.50;100.00
21902;BME280;11115;46.038;14.612;2022-08-14T08:54:20;97959.31;;;21.49;100.00
21902;BME280;11115;46.038;14.612;2022-08-14T08:57:11;97944.88;;;21.58;100.00
21902;BME280;11115;46.038;14.612;2022-08-14T08:59:49;97947.34;;;21.66;100.00
21902;BME280;11115;46.038;14.612;2022-08-14T09:02:25;97951.13;;;22.06;100.00
21902;BME280;11115;46.038;14.612;2022-08-14T09:05:08;97943.13;;;22.33;100.00
21902;BME280;11115;46.038;14.612;2022-08-14T09:07:52;97938.34;;;22.40;100.00
21902;BME280;11115;46.038;14.612;2022-08-14T09:10:28;97931.50;;;22.81;100.00
21902;BME280;11115;46.038;14.612;2022-08-14T09:12:56;97929.91;;;22.87;100.00
21902;BME280;11115;46.038;14.612;2022-08-14T09:15:44;97927.47;;;23.03;100.00
21902;BME280;11115;46.038;14.612;2022-08-14T09:18:22;97924.66;;;22.92;100.00
21902;BME280;11115;46.038;14.612;2022-08-14T09:20:57;97919.75;;;23.32;100.00
21902;BME280;11115;46.038;14.612;2022-08-14T09:23:35;97923.31;;;23.65;100.00
21902;BME280;11115;46.038;14.612;2022-08-14T09:26:29;97921.22;;;23.79;100.00
21902;BME280;11115;46.038;14.612;2022-08-14T10:06:42;97880.19;;;25.57;99.66
21902;BME280;11115;46.038;14.612;2022-08-14T10:09:13;97880.41;;;25.74;96.59
21902;BME280;11115;46.038;14.612;2022-08-14T10:11:55;97881.34;;;25.94;100.00
21902;BME280;11115;46.038;14.612;2022-08-14T10:14:34;97881.16;;;26.08;89.54
21902;BME280;11115;46.038;14.612;2022-08-14T10:17:22;97880.09;;;26.25;98.07
21902;BME280;11115;46.038;14.612;2022-08-14T10:20:07;97871.97;;;26.27;90.66
21902;BME280;11115;46.038;14.612;2022-08-14T10:23:17;97865.56;;;26.23;78.23
21902;BME280;11115;46.038;14.612;2022-08-14T10:25:57;97868.34;;;26.27;74.74
21902;BME280;11115;46.038;14.612;2022-08-14T10:28:50;97856.69;;;26.48;80.24
21902;BME280;11115;46.038;14.612;2022-08-14T10:31:42;97842.69;;;26.84;78.88
21902;BME280;11115;46.038;14.612;2022-08-14T10:34:18;97863.88;;;27.23;78.03
21902;BME280;11115;46.038;14.612;2022-08-14T10:37:17;97863.97;;;27.19;59.62
21902;BME280;11115;46.038;14.612;2022-08-14T10:40:01;97844.28;;;27.09;56.82
21902;BME280;11115;46.038;14.612;2022-08-14T10:42:57;97849.69;;;27.43;61.83
21902;BME280;11115;46.038;14.612;2022-08-14T10:45:33;97848.66;;;27.33;70.25
21902;BME280;11115;46.038;14.612;2022-08-14T10:48:18;97825.44;;;26.95;55.52
21902;BME280;11115;46.038;14.612;2022-08-14T10:51:08;97843.66;;;27.41;56.64
21902;BME280;11115;46.038;14.612;2022-08-14T10:53:53;97849.25;;;27.44;52.96
21902;BME280;11115;46.038;14.612;2022-08-14T10:56:36;97836.00;;;27.58;52.95
21902;BME280;11115;46.038;14.612;2022-08-14T10:59:15;97827.69;;;27.87;57.53
21902;BME280;11115;46.038;14.612;2022-08-14T11:01:48;97832.16;;;28.04;56.11
21902;BME280;11115;46.038;14.612;2022-08-14T11:04:22;97832.31;;;27.97;54.49
21902;BME280;11115;46.038;14.612;2022-08-14T11:06:56;97827.00;;;28.15;71.66
21902;BME280;11115;46.038;14.612;2022-08-14T11:09:33;97823.06;;;28.29;68.39
21902;BME280;11115;46.038;14.612;2022-08-14T11:12:08;97823.69;;;28.36;67.00
21902;BME280;11115;46.038;14.612;2022-08-14T11:15:04;97815.63;;;28.15;60.39
21902;BME280;11115;46.038;14.612;2022-08-14T11:17:40;97810.66;;;28.03;49.11
21902;BME280;11115;46.038;14.612;2022-08-14T11:20:18;97815.13;;;28.20;51.23
21902;BME280;11115;46.038;14.612;2022-08-14T11:22:55;97786.41;;;27.98;47.72
21902;BME280;11115;46.038;14.612;2022-08-14T11:25:29;97798.75;;;28.24;48.57
21902;BME280;11115;46.038;14.612;2022-08-14T11:28:14;97787.91;;;28.84;53.36
21902;BME280;11115;46.038;14.612;2022-08-14T11:31:08;97794.94;;;28.96;50.76
21902;BME280;11115;46.038;14.612;2022-08-14T11:33:41;97787.88;;;29.29;63.24
21902;BME280;11115;46.038;14.612;2022-08-14T11:36:11;97784.53;;;29.47;63.09
21902;BME280;11115;46.038;14.612;2022-08-14T11:38:45;97778.97;;;29.56;59.32
21902;BME280;11115;46.038;14.612;2022-08-14T11:41:21;97778.53;;;29.58;52.12
21902;BME280;11115;46.038;14.612;2022-08-14T11:43:53;97766.03;;;29.39;48.73
21902;BME280;11115;46.038;14.612;2022-08-14T11:46:26;97778.91;;;29.02;50.41
21902;BME280;11115;46.038;14.612;2022-08-14T11:49:04;97773.72;;;29.26;52.94
21902;BME280;11115;46.038;14.612;2022-08-14T11:51:52;97742.03;;;29.66;56.08
21902;BME280;11115;46.038;14.612;2022-08-14T11:54:25;97754.13;;;29.82;53.01
21902;BME280;11115;46.038;14.612;2022-08-14T11:57:00;97767.47;;;29.60;52.33
21902;BME280;11115;46.038;14.612;2022-08-14T11:59:30;97765.22;;;29.93;53.33
21902;BME280;11115;46.038;14.612;2022-08-14T12:02:16;97759.97;;;29.79;45.37
21902;BME280;11115;46.038;14.612;2022-08-14T12:05:08;97749.03;;;29.90;43.93
21902;BME280;11115;46.038;14.612;2022-08-14T12:07:50;97757.56;;;29.90;40.76
21902;BME280;11115;46.038;14.612;2022-08-14T12:10:28;97753.69;;;29.71;40.11
21902;BME280;11115;46.038;14.612;2022-08-14T12:13:10;97752.75;;;29.87;41.02
21902;BME280;11115;46.038;14.612;2022-08-14T12:16:06;97745.50;;;30.71;39.47
21902;BME280;11115;46.038;14.612;2022-08-14T12:18:47;97744.69;;;31.05;42.48
21902;BME280;11115;46.038;14.612;2022-08-14T12:21:25;97732.69;;;31.32;41.77
21902;BME280;11115;46.038;14.612;2022-08-14T12:24:02;97730.78;;;31.60;42.00
21902;BME280;11115;46.038;14.612;2022-08-14T12:26:34;97731.13;;;31.93;41.78
21902;BME280;11115;46.038;14.612;2022-08-14T12:29:15;97705.56;;;30.93;39.23
21902;BME280;11115;46.038;14.612;2022-08-14T12:31:59;97718.25;;;30.92;38.53
21902;BME280;11115;46.038;14.612;2022-08-14T12:34:36;97714.00;;;31.40;39.11
21902;BME280;11115;46.038;14.612;2022-08-14T12:37:14;97715.00;;;31.47;38.61
21902;BME280;11115;46.038;14.612;2022-08-14T12:39:45;97711.28;;;31.68;37.95
21902;BME280;11115;46.038;14.612;2022-08-14T12:42:19;97701.25;;;31.94;36.82
21902;BME280;11115;46.038;14.612;2022-08-14T12:45:01;97697.84;;;31.78;36.87
21902;BME280;11115;46.038;14.612;2022-08-14T12:47:31;97700.69;;;32.18;37.78
21902;BME280;11115;46.038;14.612;2022-08-14T12:50:02;97699.97;;;31.95;36.42
21902;BME280;11115;46.038;14.612;2022-08-14T12:52:43;97698.06;;;31.83;35.71
21902;BME280;11115;46.038;14.612;2022-08-14T12:55:37;97691.34;;;31.46;38.30
21902;BME280;11115;46.038;14.612;2022-08-14T12:58:33;97681.53;;;32.64;39.71
21902;BME280;11115;46.038;14.612;2022-08-14T13:01:22;97685.19;;;32.65;36.73
21902;BME280;11115;46.038;14.612;2022-08-14T13:04:14;97679.97;;;32.90;34.86
21902;BME280;11115;46.038;14.612;2022-08-14T13:06:47;97651.81;;;32.62;34.38
21902;BME280;11115;46.038;14.612;2022-08-14T13:09:25;97649.81;;;32.13;34.66
21902;BME280;11115;46.038;14.612;2022-08-14T13:12:05;97671.84;;;32.71;34.95
21902;BME280;11115;46.038;14.612;2022-08-14T13:15:05;97663.19;;;33.35;34.04
21902;BME280;11115;46.038;14.612;2022-08-14T13:20:16;97660.19;;;33.38;32.70
21902;BME280;11115;46.038;14.612;2022-08-14T13:22:52;97661.56;;;33.94;32.96
21902;BME280;11115;46.038;14.612;2022-08-14T13:25:25;97654.50;;;33.62;32.97
21902;BME280;11115;46.038;14.612;2022-08-14T13:28:12;97647.09;;;34.13;32.90
21902;BME280;11115;46.038;14.612;2022-08-14T13:31:01;97643.28;;;34.39;33.29
21902;BME280;11115;46.038;14.612;2022-08-14T13:33:40;97643.78;;;34.05;32.53
21902;BME280;11115;46.038;14.612;2022-08-14T13:36:10;97624.75;;;33.60;31.00
21902;BME280;11115;46.038;14.612;2022-08-14T13:38:52;97635.03;;;34.32;31.75
21902;BME280;11115;46.038;14.612;2022-08-14T13:41:27;97615.09;;;35.21;29.07
21902;BME280;11115;46.038;14.612;2022-08-14T13:44:04;97640.13;;;39.58;26.21
21902;BME280;11115;46.038;14.612;2022-08-14T13:46:42;97638.25;;;40.80;24.57
21902;BME280;11115;46.038;14.612;2022-08-14T13:49:19;97625.72;;;41.13;23.69
21902;BME280;11115;46.038;14.612;2022-08-14T13:51:51;97625.56;;;40.19;25.28
21902;BME280;11115;46.038;14.612;2022-08-14T13:54:28;97622.53;;;40.64;23.12
21902;BME280;11115;46.038;14.612;2022-08-14T13:57:02;97609.63;;;40.59;23.55
21902;BME280;11115;46.038;14.612;2022-08-14T13:59:35;97623.25;;;39.39;24.14
21902;BME280;11115;46.038;14.612;2022-08-14T14:02:07;97627.13;;;40.31;23.84
21902;BME280;11115;46.038;14.612;2022-08-14T14:04:59;97613.00;;;39.78;23.80
21902;BME280;11115;46.038;14.612;2022-08-14T14:07:33;97609.59;;;38.52;24.43
21902;BME280;11115;46.038;14.612;2022-08-14T14:10:11;97606.66;;;40.82;23.44
21902;BME280;11115;46.038;14.612;2022-08-14T14:12:54;97596.38;;;40.06;23.81
21902;BME280;11115;46.038;14.612;2022-08-14T14:15:35;97593.19;;;41.26;23.93
21902;BME280;11115;46.038;14.612;2022-08-14T14:18:26;97583.56;;;40.59;24.47
21902;BME280;11115;46.038;14.612;2022-08-14T14:21:24;97599.56;;;39.69;25.14
21902;BME280;11115;46.038;14.612;2022-08-14T14:24:15;97590.44;;;38.49;25.27
21902;BME280;11115;46.038;14.612;2022-08-14T14:27:05;97587.47;;;39.20;24.20
21902;BME280;11115;46.038;14.612;2022-08-14T14:29:57;97564.69;;;40.42;23.47
21902;BME280;11115;46.038;14.612;2022-08-14T14:32:47;97576.88;;;41.17;24.16
21902;BME280;11115;46.038;14.612;2022-08-14T14:35:33;97572.84;;;41.31;22.99